sensor_id;sensor_type;location;lat;lon;timestamp;P1;durP1;ratioP1;P2;durP2;ratioP2
76989;SDS011;65924;47.250;11.332;2024-03-08T00:00:08;20.70;;;13.40;;
76989;SDS011;65924;47.250;11.332;2024-03-08T00:00:42;21.10;;;12.90;;
76989;SDS011;65924;47.250;11.332;2024-03-08T00:01:13;22.40;;;13.10;;
76989;SDS011;65924;47.250;11.332;2024-03-08T00:01:46;20.40;;;13.30;;
76989;SDS011;65924;47.250;11.332;2024-03-08T00:02:19;20.60;;;13.00;;
76989;SDS011;65924;47.250;11.332;2024-03-08T00:02:50;21.60;;;13.20;;
76989;SDS011;65924;47.250;11.332;2024-03-08T00:03:26;19.30;;;12.30;;
76989;SDS011;65924;47.250;11.332;2024-03-08T00:04:00;20.70;;;12.70;;
76989;SDS011;65924;47.250;11.332;2024-03-08T00:04:30;21.90;;;14.00;;
76989;SDS011;65924;47.250;11.332;2024-03-08T00:05:01;21.80;;;14.00;;
76989;SDS011;65924;47.250;11.332;2024-03-08T00:05:32;22.50;;;15.10;;
76989;SDS011;65924;47.250;11.332;2024-03-08T00:06:03;21.50;;;14.10;;
76989;SDS011;65924;47.250;11.332;2024-03-08T00:06:35;25.10;;;13.60;;
76989;SDS011;65924;47.250;11.332;2024-03-08T00:07:06;20.10;;;13.70;;
76989;SDS011;65924;47.250;11.332;2024-03-08T00:07:40;23.00;;;14.10;;
76989;SDS011;65924;47.250;11.332;2024-03-08T00:08:11;21.40;;;13.50;;
76989;SDS011;65924;47.250;11.332;2024-03-08T00:08:41;22.80;;;14.00;;
76989;SDS011;65924;47.250;11.332;2024-03-08T00:09:12;21.30;;;13.90;;
76989;SDS011;65924;47.250;11.332;2024-03-08T00:09:42;23.20;;;13.80;;
76989;SDS011;65924;47.250;11.332;2024-03-08T00:10:14;20.70;;;13.40;;
76989;SDS011;65924;47.250;11.332;2024-03-08T00:10:45;21.90;;;14.60;;
76989;SDS011;65924;47.250;11.332;2024-03-08T00:11:18;21.40;;;13.00;;
76989;SDS011;65924;47.250;11.332;2024-03-08T00:11:48;22.90;;;14.10;;
76989;SDS011;65924;47.250;11.332;2024-03-08T00:12:20;23.40;;;14.20;;
76989;SDS011;65924;47.250;11.332;2024-03-08T00:12:51;22.70;;;15.00;;
76989;SDS011;65924;47.250;11.332;2024-03-08T00:13:22;21.10;;;13.90;;
76989;SDS011;65924;47.250;11.332;2024-03-08T00:13:52;24.20;;;15.00;;
76989;SDS011;65924;47.250;11.332;2024-03-08T00:14:26;20.20;;;13.70;;
76989;SDS011;65924;47.250;11.332;2024-03-08T00:14:58;22.30;;;14.50;;
76989;SDS011;65924;47.250;11.332;2024-03-08T00:15:29;26.40;;;15.80;;
76989;SDS011;65924;47.250;11.332;2024-03-08T00:16:02;23.40;;;15.70;;
76989;SDS011;65924;47.250;11.332;2024-03-08T00:16:33;26.60;;;17.40;;
76989;SDS011;65924;47.250;11.332;2024-03-08T00:17:04;22.60;;;14.40;;
76989;SDS011;65924;47.250;11.332;2024-03-08T00:17:37;25.40;;;15.10;;
76989;SDS011;65924;47.250;11.332;2024-03-08T00:18:08;25.50;;;16.10;;
76989;SDS011;65924;47.250;11.332;2024-03-08T00:18:39;28.30;;;17.10;;
76989;SDS011;65924;47.250;11.332;2024-03-08T00:19:09;42.00;;;23.30;;
76989;SDS011;65924;47.250;11.332;2024-03-08T00:19:40;30.90;;;17.40;;
76989;SDS011;65924;47.250;11.332;2024-03-08T00:20:12;25.30;;;15.90;;
76989;SDS011;65924;47.250;11.332;2024-03-08T00:20:46;25.00;;;14.50;;
76989;SDS011;65924;47.250;11.332;2024-03-08T00:21:16;26.70;;;15.30;;
76989;SDS011;65924;47.250;11.332;2024-03-08T00:21:47;22.80;;;14.70;;
76989;SDS011;65924;47.250;11.332;2024-03-08T00:22:21;21.20;;;13.20;;
76989;SDS011;65924;47.250;11.332;2024-03-08T00:22:52;21.10;;;13.90;;
76989;SDS011;65924;47.250;11.332;2024-03-08T00:23:23;22.10;;;14.10;;
76989;SDS011;65924;47.250;11.332;2024-03-08T00:23:54;21.00;;;13.20;;
76989;SDS011;65924;47.250;11.332;2024-03-08T00:24:25;21.50;;;13.60;;
76989;SDS011;65924;47.250;11.332;2024-03-08T00:25:03;22.20;;;13.80;;
76989;SDS011;65924;47.250;11.332;2024-03-08T00:25:33;20.50;;;13.60;;
76989;SDS011;65924;47.250;11.332;2024-03-08T00:26:09;20.20;;;12.10;;
76989;SDS011;65924;47.250;11.332;2024-03-08T00:26:41;19.20;;;11.90;;
76989;SDS011;65924;47.250;11.332;2024-03-08T00:27:13;20.90;;;12.70;;
76989;SDS011;65924;47.250;11.332;2024-03-08T00:27:46;18.60;;;11.60;;
76989;SDS011;65924;47.250;11.332;2024-03-08T00:28:19;21.20;;;12.20;;
76989;SDS011;65924;47.250;11.332;2024-03-08T00:28:51;21.10;;;12.40;;
76989;SDS011;65924;47.250;11.332;2024-03-08T00:29:22;21.00;;;12.70;;
76989;SDS011;65924;47.250;11.332;2024-03-08T00:29:53;19.60;;;12.60;;
76989;SDS011;65924;47.250;11.332;2024-03-08T00:30:23;20.10;;;12.00;;
76989;SDS011;65924;47.250;11.332;2024-03-08T00:30:58;20.50;;;12.10;;
76989;SDS011;65924;47.250;11.332;2024-03-08T00:31:29;20.50;;;11.70;;
76989;SDS011;65924;47.250;11.332;2024-03-08T00:32:01;19.10;;;12.30;;
76989;SDS011;65924;47.250;11.332;2024-03-08T00:32:31;19.00;;;12.30;;
76989;SDS011;65924;47.250;11.332;2024-03-08T00:33:02;17.80;;;11.20;;
76989;SDS011;65924;47.250;11.332;2024-03-08T00:33:32;15.50;;;10.80;;
76989;SDS011;65924;47.250;11.332;2024-03-08T00:34:03;17.50;;;11.40;;
76989;SDS011;65924;47.250;11.332;2024-03-08T00:34:35;18.30;;;12.10;;
76989;SDS011;65924;47.250;11.332;2024-03-08T00:35:07;19.00;;;12.00;;
76989;SDS011;65924;47.250;11.332;2024-03-08T00:35:37;16.90;;;10.60;;
76989;SDS011;65924;47.250;11.332;2024-03-08T00:36:08;15.20;;;9.90;;
76989;SDS011;65924;47.250;11.332;2024-03-08T00:36:38;15.00;;;9.70;;
76989;SDS011;65924;47.250;11.332;2024-03-08T00:37:09;17.00;;;10.20;;
76989;SDS011;65924;47.250;11.332;2024-03-08T00:37:40;16.60;;;10.20;;
76989;SDS011;65924;47.250;11.332;2024-03-08T00:38:12;15.30;;;9.80;;
76989;SDS011;65924;47.250;11.332;2024-03-08T00:38:43;16.20;;;10.00;;
76989;SDS011;65924;47.250;11.332;2024-03-08T00:39:13;16.30;;;9.50;;
76989;SDS011;65924;47.250;11.332;2024-03-08T00:39:44;15.40;;;10.40;;
76989;SDS011;65924;47.250;11.332;2024-03-08T00:40:15;16.10;;;9.90;;
76989;SDS011;65924;47.250;11.332;2024-03-08T00:40:45;18.10;;;10.20;;
76989;SDS011;65924;47.250;11.332;2024-03-08T00:41:16;16.60;;;10.10;;
76989;SDS011;65924;47.250;11.332;2024-03-08T00:41:47;17.20;;;10.30;;
76989;SDS011;65924;47.250;11.332;2024-03-08T00:42:18;18.10;;;10.50;;
76989;SDS011;65924;47.250;11.332;2024-03-08T00:42:50;16.00;;;9.40;;
76989;SDS011;65924;47.250;11.332;2024-03-08T00:43:20;17.50;;;10.30;;
76989;SDS011;65924;47.250;11.332;2024-03-08T00:43:51;17.70;;;9.60;;
76989;SDS011;65924;47.250;11.332;2024-03-08T00:44:21;17.50;;;8.90;;
76989;SDS011;65924;47.250;11.332;2024-03-08T00:44:52;13.50;;;9.00;;
76989;SDS011;65924;47.250;11.332;2024-03-08T00:45:22;13.70;;;8.60;;
76989;SDS011;65924;47.250;11.332;2024-03-08T00:45:53;16.40;;;9.30;;
76989;SDS011;65924;47.250;11.332;2024-03-08T00:46:24;15.00;;;9.30;;
76989;SDS011;65924;47.250;11.332;2024-03-08T00:46:55;15.60;;;9.70;;
76989;SDS011;65924;47.250;11.332;2024-03-08T00:47:57;15.60;;;9.50;;
76989;SDS011;65924;47.250;11.332;2024-03-08T00:48:30;17.40;;;9.10;;
76989;SDS011;65924;47.250;11.332;2024-03-08T00:49:01;14.80;;;8.80;;
76989;SDS011;65924;47.250;11.332;2024-03-08T00:49:31;15.50;;;8.20;;
76989;SDS011;65924;47.250;11.332;2024-03-08T00:50:02;17.30;;;9.70;;
76989;SDS011;65924;47.250;11.332;2024-03-08T00:51:04;12.90;;;8.10;;
76989;SDS011;65924;47.250;11.332;2024-03-08T00:51:37;15.30;;;8.50;;
76989;SDS011;65924;47.250;11.332;2024-03-08T00:52:08;14.90;;;9.40;;
76989;SDS011;65924;47.250;11.332;2024-03-08T00:52:38;14.10;;;8.50;;
76989;SDS011;65924;47.250;11.332;2024-03-08T00:53:09;16.90;;;9.80;;
76989;SDS011;65924;47.250;11.332;2024-03-08T00:54:11;18.00;;;10.80;;
76989;SDS011;65924;47.250;11.332;2024-03-08T00:54:42;15.60;;;9.40;;
76989;SDS011;65924;47.250;11.332;2024-03-08T00:55:13;16.90;;;9.90;;
76989;SDS011;65924;47.250;11.332;2024-03-08T00:55:46;13.80;;;9.60;;
76989;SDS011;65924;47.250;11.332;2024-03-08T00:56:17;16.30;;;10.80;;
76989;SDS011;65924;47.250;11.332;2024-03-08T00:56:47;16.70;;;10.70;;
76989;SDS011;65924;47.250;11.332;2024-03-08T00:57:18;21.60;;;11.50;;
76989;SDS011;65924;47.250;11.332;2024-03-08T00:57:50;16.10;;;9.40;;
76989;SDS011;65924;47.250;11.332;2024-03-08T00:58:23;15.70;;;8.70;;
76989;SDS011;65924;47.250;11.332;2024-03-08T00:58:56;19.10;;;9.30;;
76989;SDS011;65924;47.250;11.332;2024-03-08T00:59:27;15.30;;;8.40;;
76989;SDS011;65924;47.250;11.332;2024-03-08T00:59:57;17.90;;;9.70;;
76989;SDS011;65924;47.250;11.332;2024-03-08T01:00:28;14.60;;;8.90;;
76989;SDS011;65924;47.250;11.332;2024-03-08T01:00:58;14.90;;;9.20;;
76989;SDS011;65924;47.250;11.332;2024-03-08T01:01:29;15.60;;;9.80;;
76989;SDS011;65924;47.250;11.332;2024-03-08T01:02:00;13.80;;;8.60;;
76989;SDS011;65924;47.250;11.332;2024-03-08T01:02:31;15.80;;;9.60;;
76989;SDS011;65924;47.250;11.332;2024-03-08T01:03:03;15.20;;;8.50;;
76989;SDS011;65924;47.250;11.332;2024-03-08T01:03:34;18.50;;;9.60;;
76989;SDS011;65924;47.250;11.332;2024-03-08T01:04:04;16.30;;;9.70;;
76989;SDS011;65924;47.250;11.332;2024-03-08T01:04:35;16.70;;;9.40;;
76989;SDS011;65924;47.250;11.332;2024-03-08T01:05:08;16.90;;;9.00;;
76989;SDS011;65924;47.250;11.332;2024-03-08T01:05:39;18.20;;;9.30;;
76989;SDS011;65924;47.250;11.332;2024-03-08T01:06:09;20.60;;;9.40;;
76989;SDS011;65924;47.250;11.332;2024-03-08T01:07:15;19.00;;;9.70;;
76989;SDS011;65924;47.250;11.332;2024-03-08T01:07:46;16.70;;;8.60;;
76989;SDS011;65924;47.250;11.332;2024-03-08T01:08:17;16.20;;;9.20;;
76989;SDS011;65924;47.250;11.332;2024-03-08T01:08:47;16.50;;;9.20;;
76989;SDS011;65924;47.250;11.332;2024-03-08T01:09:18;15.20;;;8.30;;
76989;SDS011;65924;47.250;11.332;2024-03-08T01:09:48;16.60;;;9.20;;
76989;SDS011;65924;47.250;11.332;2024-03-08T01:10:19;19.10;;;10.50;;
76989;SDS011;65924;47.250;11.332;2024-03-08T01:10:49;19.90;;;10.50;;
76989;SDS011;65924;47.250;11.332;2024-03-08T01:11:20;15.90;;;9.90;;
76989;SDS011;65924;47.250;11.332;2024-03-08T01:11:51;15.20;;;8.50;;
76989;SDS011;65924;47.250;11.332;2024-03-08T01:12:24;15.40;;;9.60;;
76989;SDS011;65924;47.250;11.332;2024-03-08T01:12:55;16.40;;;9.30;;
76989;SDS011;65924;47.250;11.332;2024-03-08T01:13:27;15.40;;;8.90;;
76989;SDS011;65924;47.250;11.332;2024-03-08T01:13:57;15.90;;;9.80;;
76989;SDS011;65924;47.250;11.332;2024-03-08T01:14:27;18.30;;;9.70;;
76989;SDS011;65924;47.250;11.332;2024-03-08T01:15:04;19.30;;;10.50;;
76989;SDS011;65924;47.250;11.332;2024-03-08T01:15:36;19.60;;;10.80;;
76989;SDS011;65924;47.250;11.332;2024-03-08T01:16:07;24.20;;;12.00;;
76989;SDS011;65924;47.250;11.332;2024-03-08T01:16:37;21.40;;;11.20;;
76989;SDS011;65924;47.250;11.332;2024-03-08T01:17:08;22.50;;;12.30;;
76989;SDS011;65924;47.250;11.332;2024-03-08T01:17:40;22.90;;;12.10;;
76989;SDS011;65924;47.250;11.332;2024-03-08T01:18:10;20.80;;;10.50;;
76989;SDS011;65924;47.250;11.332;2024-03-08T01:18:41;17.40;;;10.20;;
76989;SDS011;65924;47.250;11.332;2024-03-08T01:19:12;17.70;;;10.00;;
76989;SDS011;65924;47.250;11.332;2024-03-08T01:19:43;16.80;;;8.70;;
76989;SDS011;65924;47.250;11.332;2024-03-08T01:20:15;15.40;;;9.30;;
76989;SDS011;65924;47.250;11.332;2024-03-08T01:20:46;16.10;;;8.50;;
76989;SDS011;65924;47.250;11.332;2024-03-08T01:21:16;16.50;;;10.10;;
76989;SDS011;65924;47.250;11.332;2024-03-08T01:21:47;17.20;;;9.20;;
76989;SDS011;65924;47.250;11.332;2024-03-08T01:22:17;16.10;;;9.90;;
76989;SDS011;65924;47.250;11.332;2024-03-08T01:22:47;18.50;;;10.30;;
76989;SDS011;65924;47.250;11.332;2024-03-08T01:23:18;16.90;;;9.80;;
76989;SDS011;65924;47.250;11.332;2024-03-08T01:23:49;17.20;;;9.40;;
76989;SDS011;65924;47.250;11.332;2024-03-08T01:24:19;16.50;;;9.20;;
76989;SDS011;65924;47.250;11.332;2024-03-08T01:24:50;18.00;;;10.30;;
76989;SDS011;65924;47.250;11.332;2024-03-08T01:25:21;16.00;;;9.90;;
76989;SDS011;65924;47.250;11.332;2024-03-08T01:25:51;15.90;;;9.90;;
76989;SDS011;65924;47.250;11.332;2024-03-08T01:26:27;18.00;;;10.10;;
76989;SDS011;65924;47.250;11.332;2024-03-08T01:26:57;17.60;;;10.90;;
76989;SDS011;65924;47.250;11.332;2024-03-08T01:27:27;15.50;;;9.50;;
76989;SDS011;65924;47.250;11.332;2024-03-08T01:27:58;19.90;;;11.10;;
76989;SDS011;65924;47.250;11.332;2024-03-08T01:28:28;24.10;;;11.10;;
76989;SDS011;65924;47.250;11.332;2024-03-08T01:28:59;20.50;;;10.00;;
76989;SDS011;65924;47.250;11.332;2024-03-08T01:29:30;19.00;;;10.50;;
76989;SDS011;65924;47.250;11.332;2024-03-08T01:30:00;19.90;;;11.50;;
76989;SDS011;65924;47.250;11.332;2024-03-08T01:30:31;22.60;;;11.50;;
76989;SDS011;65924;47.250;11.332;2024-03-08T01:31:03;19.40;;;10.50;;
76989;SDS011;65924;47.250;11.332;2024-03-08T01:31:34;18.20;;;10.30;;
76989;SDS011;65924;47.250;11.332;2024-03-08T01:32:06;20.80;;;10.90;;
76989;SDS011;65924;47.250;11.332;2024-03-08T01:32:37;18.40;;;10.30;;
76989;SDS011;65924;47.250;11.332;2024-03-08T01:33:08;18.60;;;11.40;;
76989;SDS011;65924;47.250;11.332;2024-03-08T01:33:38;20.10;;;11.30;;
76989;SDS011;65924;47.250;11.332;2024-03-08T01:34:41;19.50;;;11.00;;
76989;SDS011;65924;47.250;11.332;2024-03-08T01:35:12;27.00;;;12.80;;
76989;SDS011;65924;47.250;11.332;2024-03-08T01:35:43;40.80;;;17.50;;
76989;SDS011;65924;47.250;11.332;2024-03-08T01:36:13;41.90;;;15.30;;
76989;SDS011;65924;47.250;11.332;2024-03-08T01:36:45;47.20;;;17.00;;
76989;SDS011;65924;47.250;11.332;2024-03-08T01:37:17;33.80;;;16.30;;
76989;SDS011;65924;47.250;11.332;2024-03-08T01:37:47;32.50;;;13.30;;
76989;SDS011;65924;47.250;11.332;2024-03-08T01:38:20;26.40;;;12.30;;
76989;SDS011;65924;47.250;11.332;2024-03-08T01:38:55;24.00;;;11.80;;
76989;SDS011;65924;47.250;11.332;2024-03-08T01:39:25;25.70;;;12.40;;
76989;SDS011;65924;47.250;11.332;2024-03-08T01:39:58;23.50;;;12.50;;
76989;SDS011;65924;47.250;11.332;2024-03-08T01:40:29;25.40;;;11.80;;
76989;SDS011;65924;47.250;11.332;2024-03-08T01:40:59;27.60;;;13.00;;
76989;SDS011;65924;47.250;11.332;2024-03-08T01:41:30;26.80;;;13.10;;
76989;SDS011;65924;47.250;11.332;2024-03-08T01:42:00;29.00;;;13.40;;
76989;SDS011;65924;47.250;11.332;2024-03-08T01:42:31;27.50;;;13.70;;
76989;SDS011;65924;47.250;11.332;2024-03-08T01:43:20;26.20;;;12.60;;
76989;SDS011;65924;47.250;11.332;2024-03-08T01:43:51;30.00;;;12.70;;
76989;SDS011;65924;47.250;11.332;2024-03-08T01:44:26;31.60;;;13.60;;
76989;SDS011;65924;47.250;11.332;2024-03-08T01:44:56;27.80;;;13.00;;
76989;SDS011;65924;47.250;11.332;2024-03-08T01:45:27;27.00;;;12.00;;
76989;SDS011;65924;47.250;11.332;2024-03-08T01:45:57;28.20;;;12.50;;
76989;SDS011;65924;47.250;11.332;2024-03-08T01:46:30;26.30;;;12.30;;
76989;SDS011;65924;47.250;11.332;2024-03-08T01:47:04;21.40;;;9.70;;
76989;SDS011;65924;47.250;11.332;2024-03-08T01:47:35;16.50;;;8.70;;
76989;SDS011;65924;47.250;11.332;2024-03-08T01:48:15;24.90;;;11.40;;
76989;SDS011;65924;47.250;11.332;2024-03-08T01:48:45;31.30;;;13.10;;
76989;SDS011;65924;47.250;11.332;2024-03-08T01:49:16;34.40;;;13.20;;
76989;SDS011;65924;47.250;11.332;2024-03-08T01:49:51;22.30;;;9.90;;
76989;SDS011;65924;47.250;11.332;2024-03-08T01:50:22;19.80;;;10.50;;
76989;SDS011;65924;47.250;11.332;2024-03-08T01:50:53;17.50;;;10.40;;
76989;SDS011;65924;47.250;11.332;2024-03-08T01:51:24;19.30;;;9.80;;
76989;SDS011;65924;47.250;11.332;2024-03-08T01:51:55;25.90;;;13.50;;
76989;SDS011;65924;47.250;11.332;2024-03-08T01:52:28;28.80;;;13.10;;
76989;SDS011;65924;47.250;11.332;2024-03-08T01:52:59;33.20;;;13.60;;
76989;SDS011;65924;47.250;11.332;2024-03-08T01:53:32;27.90;;;13.10;;
76989;SDS011;65924;47.250;11.332;2024-03-08T01:54:05;27.90;;;12.20;;
76989;SDS011;65924;47.250;11.332;2024-03-08T01:54:37;38.30;;;14.70;;
76989;SDS011;65924;47.250;11.332;2024-03-08T01:55:08;30.90;;;13.90;;
76989;SDS011;65924;47.250;11.332;2024-03-08T01:55:42;29.00;;;13.60;;
76989;SDS011;65924;47.250;11.332;2024-03-08T01:56:44;18.80;;;9.00;;
76989;SDS011;65924;47.250;11.332;2024-03-08T01:57:15;14.60;;;7.80;;
76989;SDS011;65924;47.250;11.332;2024-03-08T01:57:45;19.90;;;10.40;;
76989;SDS011;65924;47.250;11.332;2024-03-08T01:58:16;18.30;;;9.40;;
76989;SDS011;65924;47.250;11.332;2024-03-08T01:58:47;15.30;;;7.40;;
76989;SDS011;65924;47.250;11.332;2024-03-08T01:59:17;12.60;;;7.10;;
76989;SDS011;65924;47.250;11.332;2024-03-08T01:59:48;12.90;;;7.00;;
76989;SDS011;65924;47.250;11.332;2024-03-08T02:00:19;14.40;;;7.20;;
76989;SDS011;65924;47.250;11.332;2024-03-08T02:00:54;12.40;;;6.70;;
76989;SDS011;65924;47.250;11.332;2024-03-08T02:01:24;12.80;;;7.30;;
76989;SDS011;65924;47.250;11.332;2024-03-08T02:01:55;15.00;;;7.20;;
76989;SDS011;65924;47.250;11.332;2024-03-08T02:02:28;11.50;;;6.60;;
76989;SDS011;65924;47.250;11.332;2024-03-08T02:03:04;11.10;;;6.30;;
76989;SDS011;65924;47.250;11.332;2024-03-08T02:03:35;12.40;;;6.70;;
76989;SDS011;65924;47.250;11.332;2024-03-08T02:04:06;10.40;;;6.30;;
76989;SDS011;65924;47.250;11.332;2024-03-08T02:04:37;15.20;;;7.60;;
76989;SDS011;65924;47.250;11.332;2024-03-08T02:05:09;12.90;;;7.30;;
76989;SDS011;65924;47.250;11.332;2024-03-08T02:05:40;15.30;;;7.30;;
76989;SDS011;65924;47.250;11.332;2024-03-08T02:06:13;15.50;;;8.10;;
76989;SDS011;65924;47.250;11.332;2024-03-08T02:06:47;21.10;;;8.80;;
76989;SDS011;65924;47.250;11.332;2024-03-08T02:07:21;21.90;;;9.40;;
76989;SDS011;65924;47.250;11.332;2024-03-08T02:07:52;34.20;;;13.30;;
76989;SDS011;65924;47.250;11.332;2024-03-08T02:08:22;32.00;;;12.40;;
76989;SDS011;65924;47.250;11.332;2024-03-08T02:08:53;31.20;;;10.80;;
76989;SDS011;65924;47.250;11.332;2024-03-08T02:09:23;29.80;;;12.40;;
76989;SDS011;65924;47.250;11.332;2024-03-08T02:09:55;28.60;;;11.40;;
76989;SDS011;65924;47.250;11.332;2024-03-08T02:10:27;31.50;;;12.60;;
76989;SDS011;65924;47.250;11.332;2024-03-08T02:10:58;30.10;;;13.10;;
76989;SDS011;65924;47.250;11.332;2024-03-08T02:11:28;31.90;;;12.80;;
76989;SDS011;65924;47.250;11.332;2024-03-08T02:11:59;40.20;;;13.10;;
76989;SDS011;65924;47.250;11.332;2024-03-08T02:12:35;30.90;;;11.70;;
76989;SDS011;65924;47.250;11.332;2024-03-08T02:13:06;23.80;;;9.80;;
76989;SDS011;65924;47.250;11.332;2024-03-08T02:13:36;30.20;;;12.00;;
76989;SDS011;65924;47.250;11.332;2024-03-08T02:14:07;28.40;;;12.40;;
76989;SDS011;65924;47.250;11.332;2024-03-08T02:14:38;24.70;;;11.40;;
76989;SDS011;65924;47.250;11.332;2024-03-08T02:15:10;25.30;;;10.30;;
76989;SDS011;65924;47.250;11.332;2024-03-08T02:15:53;36.90;;;13.00;;
76989;SDS011;65924;47.250;11.332;2024-03-08T02:16:24;28.50;;;12.30;;
76989;SDS011;65924;47.250;11.332;2024-03-08T02:16:55;32.40;;;12.50;;
76989;SDS011;65924;47.250;11.332;2024-03-08T02:17:28;25.00;;;11.50;;
76989;SDS011;65924;47.250;11.332;2024-03-08T02:17:58;27.50;;;11.00;;
76989;SDS011;65924;47.250;11.332;2024-03-08T02:18:30;26.40;;;10.50;;
76989;SDS011;65924;47.250;11.332;2024-03-08T02:19:00;23.50;;;11.30;;
76989;SDS011;65924;47.250;11.332;2024-03-08T02:19:31;21.60;;;11.20;;
76989;SDS011;65924;47.250;11.332;2024-03-08T02:20:03;24.40;;;11.50;;
76989;SDS011;65924;47.250;11.332;2024-03-08T02:20:37;24.10;;;11.00;;
76989;SDS011;65924;47.250;11.332;2024-03-08T02:21:08;34.00;;;12.70;;
76989;SDS011;65924;47.250;11.332;2024-03-08T02:21:38;36.50;;;12.80;;
76989;SDS011;65924;47.250;11.332;2024-03-08T02:22:12;27.00;;;12.40;;
76989;SDS011;65924;47.250;11.332;2024-03-08T02:22:42;26.60;;;11.60;;
76989;SDS011;65924;47.250;11.332;2024-03-08T02:23:16;22.00;;;10.00;;
76989;SDS011;65924;47.250;11.332;2024-03-08T02:23:47;21.50;;;10.30;;
76989;SDS011;65924;47.250;11.332;2024-03-08T02:24:17;24.20;;;10.90;;
76989;SDS011;65924;47.250;11.332;2024-03-08T02:24:47;29.90;;;11.50;;
76989;SDS011;65924;47.250;11.332;2024-03-08T02:25:21;26.00;;;11.70;;
76989;SDS011;65924;47.250;11.332;2024-03-08T02:25:55;21.80;;;10.30;;
76989;SDS011;65924;47.250;11.332;2024-03-08T02:26:26;24.80;;;11.70;;
76989;SDS011;65924;47.250;11.332;2024-03-08T02:26:57;23.20;;;10.70;;
76989;SDS011;65924;47.250;11.332;2024-03-08T02:27:27;28.30;;;12.40;;
76989;SDS011;65924;47.250;11.332;2024-03-08T02:28:00;35.40;;;13.20;;
76989;SDS011;65924;47.250;11.332;2024-03-08T02:28:30;31.40;;;13.00;;
76989;SDS011;65924;47.250;11.332;2024-03-08T02:29:08;32.90;;;11.80;;
76989;SDS011;65924;47.250;11.332;2024-03-08T02:29:39;30.80;;;13.40;;
76989;SDS011;65924;47.250;11.332;2024-03-08T02:30:11;34.00;;;12.40;;
76989;SDS011;65924;47.250;11.332;2024-03-08T02:30:43;27.90;;;12.70;;
76989;SDS011;65924;47.250;11.332;2024-03-08T02:31:13;36.00;;;13.30;;
76989;SDS011;65924;47.250;11.332;2024-03-08T02:31:44;27.40;;;12.60;;
76989;SDS011;65924;47.250;11.332;2024-03-08T02:32:14;33.00;;;13.60;;
76989;SDS011;65924;47.250;11.332;2024-03-08T02:32:45;37.00;;;14.50;;
76989;SDS011;65924;47.250;11.332;2024-03-08T02:33:17;32.00;;;13.20;;
76989;SDS011;65924;47.250;11.332;2024-03-08T02:33:48;34.70;;;14.20;;
76989;SDS011;65924;47.250;11.332;2024-03-08T02:34:18;39.10;;;13.80;;
76989;SDS011;65924;47.250;11.332;2024-03-08T02:34:50;40.40;;;15.30;;
76989;SDS011;65924;47.250;11.332;2024-03-08T02:35:21;38.30;;;15.00;;
76989;SDS011;65924;47.250;11.332;2024-03-08T02:35:55;36.40;;;13.20;;
76989;SDS011;65924;47.250;11.332;2024-03-08T02:36:28;32.60;;;12.60;;
76989;SDS011;65924;47.250;11.332;2024-03-08T02:36:59;25.40;;;11.50;;
76989;SDS011;65924;47.250;11.332;2024-03-08T02:37:29;24.50;;;11.20;;
76989;SDS011;65924;47.250;11.332;2024-03-08T02:38:00;25.10;;;11.90;;
76989;SDS011;65924;47.250;11.332;2024-03-08T02:38:31;24.40;;;11.00;;
76989;SDS011;65924;47.250;11.332;2024-03-08T02:39:02;20.60;;;9.70;;
76989;SDS011;65924;47.250;11.332;2024-03-08T02:39:33;18.70;;;10.40;;
76989;SDS011;65924;47.250;11.332;2024-03-08T02:40:05;22.30;;;10.40;;
76989;SDS011;65924;47.250;11.332;2024-03-08T02:40:37;21.30;;;10.40;;
76989;SDS011;65924;47.250;11.332;2024-03-08T02:41:08;18.50;;;9.70;;
76989;SDS011;65924;47.250;11.332;2024-03-08T02:41:42;18.90;;;9.50;;
76989;SDS011;65924;47.250;11.332;2024-03-08T02:42:19;14.80;;;7.70;;
76989;SDS011;65924;47.250;11.332;2024-03-08T02:42:52;15.40;;;8.40;;
76989;SDS011;65924;47.250;11.332;2024-03-08T02:43:23;14.90;;;8.00;;
76989;SDS011;65924;47.250;11.332;2024-03-08T02:43:57;13.70;;;7.50;;
76989;SDS011;65924;47.250;11.332;2024-03-08T02:44:27;14.20;;;6.60;;
76989;SDS011;65924;47.250;11.332;2024-03-08T02:44:58;12.80;;;7.60;;
76989;SDS011;65924;47.250;11.332;2024-03-08T02:45:28;13.40;;;7.60;;
76989;SDS011;65924;47.250;11.332;2024-03-08T02:46:03;12.60;;;6.90;;
76989;SDS011;65924;47.250;11.332;2024-03-08T02:46:35;12.30;;;7.60;;
76989;SDS011;65924;47.250;11.332;2024-03-08T02:47:06;12.70;;;7.60;;
76989;SDS011;65924;47.250;11.332;2024-03-08T02:47:39;17.10;;;8.40;;
76989;SDS011;65924;47.250;11.332;2024-03-08T02:48:10;14.00;;;7.60;;
76989;SDS011;65924;47.250;11.332;2024-03-08T02:48:44;14.80;;;8.40;;
76989;SDS011;65924;47.250;11.332;2024-03-08T02:49:15;15.30;;;8.00;;
76989;SDS011;65924;47.250;11.332;2024-03-08T02:49:46;12.50;;;8.20;;
76989;SDS011;65924;47.250;11.332;2024-03-08T02:50:17;15.20;;;8.80;;
76989;SDS011;65924;47.250;11.332;2024-03-08T02:50:47;12.90;;;7.90;;
76989;SDS011;65924;47.250;11.332;2024-03-08T02:51:18;11.60;;;7.60;;
76989;SDS011;65924;47.250;11.332;2024-03-08T02:51:50;13.40;;;8.70;;
76989;SDS011;65924;47.250;11.332;2024-03-08T02:52:20;15.80;;;8.60;;
76989;SDS011;65924;47.250;11.332;2024-03-08T02:52:55;13.00;;;8.40;;
76989;SDS011;65924;47.250;11.332;2024-03-08T02:53:25;13.40;;;8.90;;
76989;SDS011;65924;47.250;11.332;2024-03-08T02:53:56;14.00;;;8.40;;
76989;SDS011;65924;47.250;11.332;2024-03-08T02:54:30;13.30;;;8.70;;
76989;SDS011;65924;47.250;11.332;2024-03-08T02:55:01;12.70;;;7.80;;
76989;SDS011;65924;47.250;11.332;2024-03-08T02:55:32;13.60;;;8.30;;
76989;SDS011;65924;47.250;11.332;2024-03-08T02:56:06;13.00;;;7.50;;
76989;SDS011;65924;47.250;11.332;2024-03-08T02:56:41;12.30;;;7.60;;
76989;SDS011;65924;47.250;11.332;2024-03-08T02:57:11;14.70;;;7.70;;
76989;SDS011;65924;47.250;11.332;2024-03-08T02:57:42;13.60;;;8.40;;
76989;SDS011;65924;47.250;11.332;2024-03-08T02:58:13;16.80;;;8.70;;
76989;SDS011;65924;47.250;11.332;2024-03-08T02:58:44;12.00;;;7.00;;
76989;SDS011;65924;47.250;11.332;2024-03-08T02:59:18;14.00;;;7.30;;
76989;SDS011;65924;47.250;11.332;2024-03-08T02:59:49;13.40;;;7.80;;
76989;SDS011;65924;47.250;11.332;2024-03-08T03:00:20;13.60;;;6.80;;
76989;SDS011;65924;47.250;11.332;2024-03-08T03:00:51;13.30;;;7.90;;
76989;SDS011;65924;47.250;11.332;2024-03-08T03:01:22;14.20;;;8.30;;
76989;SDS011;65924;47.250;11.332;2024-03-08T03:01:52;13.80;;;7.90;;
76989;SDS011;65924;47.250;11.332;2024-03-08T03:02:23;12.30;;;8.20;;
76989;SDS011;65924;47.250;11.332;2024-03-08T03:02:54;13.00;;;7.50;;
76989;SDS011;65924;47.250;11.332;2024-03-08T03:03:24;13.50;;;8.50;;
76989;SDS011;65924;47.250;11.332;2024-03-08T03:03:54;12.70;;;7.80;;
76989;SDS011;65924;47.250;11.332;2024-03-08T03:04:25;18.10;;;8.20;;
76989;SDS011;65924;47.250;11.332;2024-03-08T03:04:55;12.80;;;8.40;;
76989;SDS011;65924;47.250;11.332;2024-03-08T03:05:26;15.50;;;8.00;;
76989;SDS011;65924;47.250;11.332;2024-03-08T03:05:56;14.10;;;8.80;;